Terminal Aerodrome Forecast
Issued by NWS

Home | Current Version | Previous Version | Text Only | Print | Product List | Glossary On
Versions: 1 2 3 4 5 6 7 8 9 10 11 12 13 14 15 16 17 18
000
FTUS44 KMAF 222323 CCA
TAFHOB
TAF COR
KHOB 222323Z 2300/2324 13007KT P6SM SCT120
      TEMPO 2300/2303 VRB25G35KT 3SM TSRA BKN030 OVC060CB
     FM231000 01017G22KT P6SM OVC015
      TEMPO 2310/2313 OVC007
      AMD NOT SKED=

USA.gov is the U.S. government's official web portal to all federal, state and local government web resources and services.